Aviation Digital Data Service (ADDS)

Output produced by METARs form (1347 UTC 21 August 2019)
found at http://www.aviationweather.gov/metar/data/
 
Forecast for: LGKR (IOANNIS KAPODIST, GR)
Text: TAF LGKR 211100Z 2112/2212 13008KT 9999 FEW020
Forecast period: 1200 UTC 21 August 2019 to 1200 UTC 22 August 2019
Forecast type: FROM: standard forecast or significant change
Winds: from the SE (130 degrees) at 9 MPH (8 knots; 4.1 m/s)
Visibility: 6 or more miles 10+ km)
Ceiling: at least 12,000 feet AGL
Clouds: few clouds at 2000 feet AGL
Weather: no significant weather forecast for this period
Text: BECMG 2112/2114 29008KT
Forecast period: 1200 UTC 21 August 2019 to 0400 UTC 22 August 2019
Forecast type: BECOMING: Conditions expected to become as follows by 1400 UTC 21 August 2019
Winds: from the WNW (290 degrees) at 9 MPH (8 knots; 4.1 m/s)
Visibility: 6 or more miles 10+ km)
Ceiling: at least 12,000 feet AGL
Clouds: few clouds at 2000 feet AGL
Weather: no significant weather forecast for this period
Text: BECMG 2204/2206 08010KT
Forecast period: 0400 to 1200 UTC 22 August 2019
Forecast type: BECOMING: Conditions expected to become as follows by 0600 UTC 22 August 2019
Winds: from the E (80 degrees) at 12 MPH (10 knots; 5.1 m/s)
Visibility: 6 or more miles 10+ km)
Ceiling: at least 12,000 feet AGL
Clouds: few clouds at 2000 feet AGL
Weather: no significant weather forecast for this period